Time;durP1;ratioP1;P1;durP2;ratioP2;P2;SDS_P1;SDS_P2;PMS_P1;PMS_P2;Temp;Humidity;BMP_temperature;BMP_pressure;BME280_temperature;BME280_humidity;BME280_pressure;Samples;Min_cycle;Max_cycle;Signal;HPM_P1;HPM_P2
2023/09/05 00:00:16;;;;;;;9.57;4.82;;;;;;;-142.57;64.67;115900.28;5055709;28;20497;-85
2023/09/05 00:02:45;;;;;;;8.27;4.75;;;;;;;-142.57;64.04;115900.28;5057456;28;20028;-80
2023/09/05 00:05:11;;;;;;;9.48;3.95;;;;;;;-142.57;64.45;115900.28;5074975;28;20033;-82
2023/09/05 00:07:39;;;;;;;8.77;4.40;;;;;;;-142.57;64.46;115900.28;5074742;28;20040;-85
2023/09/05 00:10:07;;;;;;;8.60;4.72;;;;;;;-142.57;64.66;115900.28;5074744;28;20029;-82
2023/09/05 00:12:34;;;;;;;7.00;4.43;;;;;;;-142.57;64.87;115900.28;5075093;28;20043;-82
2023/09/05 00:15:00;;;;;;;11.30;4.72;;;;;;;-142.57;65.06;115900.28;5075571;28;20533;-79
2023/09/05 00:17:26;;;;;;;9.40;4.68;;;;;;;-142.57;65.59;115900.28;5075261;28;20028;-85
2023/09/05 00:19:51;;;;;;;12.85;4.88;;;;;;;-142.57;65.50;115900.28;5076216;28;20040;-80
2023/09/05 00:22:19;;;;;;;9.93;4.65;;;;;;;-142.57;66.98;115900.28;5077668;28;20383;-85
2023/09/05 00:24:44;;;;;;;9.60;4.72;;;;;;;-142.57;68.32;115900.28;5074045;28;20543;-81
2023/09/05 00:27:10;;;;;;;12.82;6.15;;;;;;;-142.57;68.76;115900.28;5074718;28;20036;-81
2023/09/05 00:29:36;;;;;;;16.05;6.30;;;;;;;-142.57;68.92;115900.28;5074586;28;20104;-85
2023/09/05 00:32:03;;;;;;;10.25;6.18;;;;;;;-142.57;68.57;115900.28;5074636;28;20046;-84
2023/09/05 00:34:31;;;;;;;10.10;6.68;;;;;;;-142.57;69.30;115900.28;5074964;28;20462;-84
2023/09/05 00:37:00;;;;;;;15.40;7.13;;;;;;;-142.57;69.64;115900.28;5074888;28;20036;-87
2023/09/05 00:39:29;;;;;;;10.00;6.15;;;;;;;-142.57;69.35;115900.28;5074578;28;20051;-80
2023/09/05 00:41:56;;;;;;;16.40;7.22;;;;;;;-142.57;68.91;115900.28;5081820;28;20040;-81
2023/09/05 00:44:25;;;;;;;9.13;6.75;;;;;;;-142.57;69.41;115900.28;5074575;28;20059;-83
2023/09/05 00:46:52;;;;;;;12.77;6.70;;;;;;;-142.57;69.77;115900.28;5086410;28;20037;-80
2023/09/05 00:49:22;;;;;;;9.43;6.88;;;;;;;-142.57;70.90;115900.28;5091393;28;20063;-82
2023/09/05 00:51:50;;;;;;;17.10;7.07;;;;;;;-142.57;70.80;115900.28;5084703;28;20039;-84
2023/09/05 00:54:17;;;;;;;10.77;6.68;;;;;;;-142.57;70.98;115900.28;5087198;28;20032;-84
2023/09/05 00:56:44;;;;;;;11.25;6.68;;;;;;;-142.57;72.40;115900.28;5080134;28;20029;-79
2023/09/05 00:59:10;;;;;;;10.77;7.07;;;;;;;-142.57;72.84;115900.28;5077781;28;20040;-83
2023/09/05 01:01:36;;;;;;;12.65;6.28;;;;;;;-142.57;72.95;115900.28;5073464;28;20031;-80
2023/09/05 01:04:04;;;;;;;10.30;6.68;;;;;;;-142.57;72.77;115900.28;5072521;28;20036;-80
2023/09/05 01:07:07;;;;;;;12.48;6.43;;;;;;;-142.57;73.44;115900.28;5077857;28;20031;-81
2023/09/05 01:09:59;;;;;;;11.07;6.63;;;;;;;-142.57;73.60;115900.28;5093626;28;20040;-84
2023/09/05 01:12:25;;;;;;;11.53;6.90;;;;;;;-142.57;73.01;115900.28;5078162;28;20041;-84
2023/09/05 01:14:52;;;;;;;10.73;6.55;;;;;;;-142.57;74.81;115900.28;5078394;28;20271;-81
2023/09/05 01:21:31;;;;;;;13.40;6.05;;;;;;;-142.57;74.05;115900.28;5069442;28;20048;-83
2023/09/05 01:24:24;;;;;;;;;;;;;;;-142.57;73.39;115900.28;5053631;28;20040;-80
2023/09/05 01:26:53;;;;;;;10.32;6.10;;;;;;;-142.57;73.17;115900.28;5068266;28;19916;-83
2023/09/05 01:29:30;;;;;;;14.63;5.88;;;;;;;-142.57;72.37;115900.28;5071691;28;20072;-80
2023/09/05 01:31:59;;;;;;;9.48;6.15;;;;;;;-142.57;72.87;115900.28;5073261;28;20071;-83
2023/09/05 01:34:26;;;;;;;13.68;6.30;;;;;;;-142.57;73.47;115900.28;5072427;28;20062;-80
2023/09/05 01:36:51;;;;;;;13.63;6.97;;;;;;;-142.57;74.24;115900.28;5072742;28;20032;-81
2023/09/05 01:39:17;;;;;;;9.77;6.15;;;;;;;-142.57;73.27;115900.28;5071251;28;20035;-81
2023/09/05 01:41:42;;;;;;;12.48;7.57;;;;;;;-142.57;73.13;115900.28;5071741;28;20105;-80
2023/09/05 01:44:08;;;;;;;13.00;6.93;;;;;;;-142.57;74.05;115900.28;5072624;28;20024;-81
2023/09/05 01:46:34;;;;;;;8.82;6.10;;;;;;;-142.57;73.98;115900.28;5072493;28;20044;-80
2023/09/05 01:48:59;;;;;;;17.98;6.85;;;;;;;-142.57;73.84;115900.28;5067254;28;20194;-81
2023/09/05 01:51:25;;;;;;;15.88;8.32;;;;;;;-142.57;75.71;115900.28;5056843;28;20040;-83
2023/09/05 01:53:50;;;;;;;17.58;8.32;;;;;;;-142.57;76.75;115900.28;5052031;28;20036;-82
2023/09/05 01:56:16;;;;;;;13.10;8.23;;;;;;;-142.57;80.09;115900.28;5059414;28;20431;-87
2023/09/05 01:58:41;;;;;;;11.32;8.57;;;;;;;-142.57;82.35;115900.28;5054992;28;20037;-83
2023/09/05 02:01:07;;;;;;;12.30;9.05;;;;;;;-142.57;83.05;115900.28;5051264;28;20033;-85
2023/09/05 02:03:32;;;;;;;13.52;9.18;;;;;;;-142.57;85.31;115900.28;5051295;28;20064;-82
2023/09/05 02:05:58;;;;;;;15.23;9.30;;;;;;;-142.57;86.56;115900.28;5052516;28;20037;-87
2023/09/05 02:08:23;;;;;;;17.63;9.07;;;;;;;-142.57;87.05;115900.28;5074483;28;20514;-86
2023/09/05 02:10:49;;;;;;;16.42;8.52;;;;;;;-142.57;88.04;115900.28;5077384;28;20086;-87
2023/09/05 02:13:16;;;;;;;17.30;8.90;;;;;;;-142.57;90.83;115900.28;5072813;28;20032;-83
2023/09/05 02:15:43;;;;;;;17.95;8.48;;;;;;;-142.57;97.18;115900.28;5072839;28;20024;-83
2023/09/05 02:18:10;;;;;;;12.88;8.85;;;;;;;-142.57;97.94;115900.28;5069286;28;20033;-83
2023/09/05 02:20:42;;;;;;;17.95;8.65;;;;;;;-142.57;98.31;115900.28;5071519;28;20040;-81
2023/09/05 02:23:08;;;;;;;14.53;8.70;;;;;;;-142.57;100.00;115900.28;5072513;28;20082;-83
2023/09/05 02:25:33;;;;;;;12.63;9.00;;;;;;;-142.57;100.00;115900.28;5072465;28;20037;-83
2023/09/05 02:27:59;;;;;;;12.18;9.10;;;;;;;-142.57;100.00;115900.28;5071973;28;20089;-80
2023/09/05 02:30:26;;;;;;;10.70;8.07;;;;;;;-142.57;100.00;115900.28;5072455;28;20025;-84
2023/09/05 02:32:52;;;;;;;14.93;8.20;;;;;;;-142.57;100.00;115900.28;5072762;28;20115;-87
2023/09/05 02:35:22;;;;;;;16.77;8.95;;;;;;;-142.57;100.00;115900.28;5071295;28;20032;-80
2023/09/05 02:37:52;;;;;;;17.30;9.10;;;;;;;-142.57;100.00;115900.28;5071239;28;20043;-84
2023/09/05 02:40:18;;;;;;;19.42;7.85;;;;;;;-142.57;100.00;115900.28;5071985;28;20459;-83
2023/09/05 02:42:44;;;;;;;10.77;7.05;;;;;;;-142.57;100.00;115900.28;5072052;28;20525;-80
2023/09/05 02:45:11;;;;;;;15.88;7.65;;;;;;;-142.57;100.00;115900.28;5072353;28;20017;-85
2023/09/05 02:47:37;;;;;;;10.68;7.43;;;;;;;-142.57;100.00;115900.28;5070883;28;20486;-80
2023/09/05 02:50:03;;;;;;;10.57;7.10;;;;;;;-142.57;100.00;115900.28;5071885;28;20036;-86
2023/09/05 02:52:30;;;;;;;11.50;6.65;;;;;;;-142.57;100.00;115900.28;5070863;28;20032;-80
2023/09/05 02:54:56;;;;;;;9.45;6.75;;;;;;;-142.57;100.00;115900.28;5070804;28;20125;-81
2023/09/05 02:57:22;;;;;;;10.15;7.43;;;;;;;-142.57;100.00;115900.28;5074178;28;20032;-85
2023/09/05 02:59:52;;;;;;;11.80;7.22;;;;;;;-142.57;100.00;115900.28;5073892;28;20071;-78
2023/09/05 03:02:17;;;;;;;16.05;6.70;;;;;;;-142.57;100.00;115900.28;5075697;28;20035;-84
2023/09/05 03:04:43;;;;;;;11.05;6.60;;;;;;;-142.57;100.00;115900.28;5075718;28;20020;-85
2023/09/05 03:07:08;;;;;;;16.42;7.05;;;;;;;-142.57;100.00;115900.28;5075665;28;20125;-79
2023/09/05 03:09:34;;;;;;;11.40;6.90;;;;;;;-142.57;100.00;115900.28;5075495;28;20048;-85
2023/09/05 03:12:00;;;;;;;10.82;7.05;;;;;;;-142.57;100.00;115900.28;5074101;28;20036;-83
2023/09/05 03:14:25;;;;;;;12.07;6.65;;;;;;;-142.57;98.14;115900.28;5073974;28;20107;-82
2023/09/05 03:16:51;;;;;;;9.15;6.57;;;;;;;-142.57;96.33;115900.28;5074055;28;20032;-83
2023/09/05 03:19:19;;;;;;;9.95;6.38;;;;;;;-142.57;99.52;115900.28;5064626;28;20125;-82
2023/09/05 03:21:45;;;;;;;9.10;5.88;;;;;;;-142.57;99.06;115900.28;5054352;28;20025;-82
2023/09/05 03:24:11;;;;;;;9.93;6.28;;;;;;;-142.57;97.56;115900.28;5054502;28;20518;-80
2023/09/05 03:26:39;;;;;;;10.63;5.88;;;;;;;-142.57;96.43;115900.28;5055437;28;20060;-80
2023/09/05 03:29:06;;;;;;;11.45;6.03;;;;;;;-142.57;98.15;115900.28;5039205;28;20049;-82
2023/09/05 03:31:32;;;;;;;8.93;5.65;;;;;;;-142.57;97.05;115900.28;5073957;28;20414;-83
2023/09/05 03:33:57;;;;;;;10.68;5.93;;;;;;;-142.57;96.68;115900.28;5075511;28;20108;-82
2023/09/05 03:36:26;;;;;;;10.23;5.97;;;;;;;-142.57;95.89;115900.28;5074262;28;20455;-83
2023/09/05 03:38:56;;;;;;;14.18;6.40;;;;;;;-142.57;96.26;115900.28;5075564;28;20471;-85
2023/09/05 03:41:21;;;;;;;9.82;5.50;;;;;;;-142.57;95.13;115900.28;5060023;28;20115;-83
2023/09/05 03:43:46;;;;;;;16.02;6.43;;;;;;;-142.57;95.63;115900.28;5055463;28;20415;-82
2023/09/05 03:46:15;;;;;;;8.00;5.80;;;;;;;-142.57;95.87;115900.28;5055126;28;20022;-85
2023/09/05 03:48:40;;;;;;;14.02;5.53;;;;;;;-142.57;94.25;115900.28;5055139;28;20125;-81
2023/09/05 03:51:06;;;;;;;11.05;5.85;;;;;;;-142.57;92.72;115900.28;5073246;28;20025;-84
2023/09/05 03:53:32;;;;;;;9.75;5.22;;;;;;;-142.57;92.66;115900.28;5076445;28;20041;-83
2023/09/05 03:55:57;;;;;;;7.45;5.55;;;;;;;-142.57;90.77;115900.28;5073575;28;20033;-84
2023/09/05 03:58:23;;;;;;;8.00;4.68;;;;;;;-142.57;89.63;115900.28;5073314;28;20182;-83
2023/09/05 04:00:48;;;;;;;9.40;5.88;;;;;;;-142.57;89.71;115900.28;5074356;28;20032;-84
2023/09/05 04:03:14;;;;;;;12.13;5.70;;;;;;;-142.57;88.41;115900.28;5074470;28;20490;-87
2023/09/05 04:05:40;;;;;;;7.35;4.93;;;;;;;-142.57;87.59;115900.28;5074360;28;20036;-86
2023/09/05 04:08:08;;;;;;;9.60;4.75;;;;;;;-142.57;87.79;115900.28;5074710;28;20067;-85
2023/09/05 04:10:34;;;;;;;11.98;5.97;;;;;;;-142.57;87.80;115900.28;5074122;28;20036;-85
2023/09/05 04:13:00;;;;;;;10.73;5.18;;;;;;;-142.57;87.14;115900.28;5073526;28;20035;-82
2023/09/05 04:15:25;;;;;;;12.55;5.22;;;;;;;-142.57;88.47;115900.28;5073228;28;20477;-83
2023/09/05 04:17:51;;;;;;;8.27;4.88;;;;;;;-142.57;88.18;115900.28;5074396;28;20038;-82
2023/09/05 04:20:18;;;;;;;11.85;6.00;;;;;;;-142.57;90.41;115900.28;5073647;28;20020;-85
2023/09/05 04:22:43;;;;;;;10.32;6.00;;;;;;;-142.57;91.91;115900.28;5074076;28;20460;-84
2023/09/05 04:25:10;;;;;;;12.65;6.03;;;;;;;-142.57;93.60;115900.28;5074320;28;20028;-85
2023/09/05 04:27:36;;;;;;;12.18;5.90;;;;;;;-142.57;96.03;115900.28;5074528;28;20046;-85
2023/09/05 04:30:03;;;;;;;9.32;6.25;;;;;;;-142.57;99.80;115900.28;5072947;28;20060;-82
2023/09/05 04:32:30;;;;;;;9.40;6.90;;;;;;;-142.57;100.00;115900.28;5063846;28;20382;-83
2023/09/05 04:34:58;;;;;;;11.00;6.65;;;;;;;-142.57;100.00;115900.28;5078727;28;20029;-86
2023/09/05 04:37:24;;;;;;;8.57;6.15;;;;;;;-142.57;100.00;115900.28;5074691;28;20032;-86
2023/09/05 04:39:57;;;;;;;11.20;6.38;;;;;;;-142.57;99.03;115900.28;5074589;28;20064;-87
2023/09/05 04:42:25;;;;;;;16.58;6.43;;;;;;;-142.57;96.67;115900.28;5085162;28;20067;-89
2023/09/05 04:44:51;;;;;;;13.05;6.57;;;;;;;-142.57;97.14;115900.28;5091473;28;20037;-86
2023/09/05 04:47:31;;;;;;;16.70;6.65;;;;;;;-142.57;95.85;115900.28;5095869;28;20040;-86
2023/09/05 04:49:58;;;;;;;11.63;6.00;;;;;;;-142.57;94.34;115900.28;5094096;28;20045;-81
2023/09/05 04:52:28;;;;;;;14.35;6.75;;;;;;;-142.57;95.16;115900.28;5092334;28;20028;-80
2023/09/05 04:54:55;;;;;;;19.67;6.97;;;;;;;-142.57;93.40;115900.28;5083807;28;20060;-83
2023/09/05 04:57:21;;;;;;;11.38;6.43;;;;;;;-142.57;95.45;115900.28;5073420;28;20028;-81
2023/09/05 04:59:53;;;;;;;11.45;7.38;;;;;;;-142.57;94.29;115900.28;5072147;28;20149;-80
2023/09/05 05:02:19;;;;;;;24.23;8.27;;;;;;;-142.57;95.29;115900.28;5065761;28;20068;-83
2023/09/05 05:04:45;;;;;;;11.15;7.20;;;;;;;-142.57;94.63;115900.28;5073409;28;20064;-83
2023/09/05 05:07:11;;;;;;;12.55;7.22;;;;;;;-142.57;94.62;115900.28;5073835;28;20060;-85
2023/09/05 05:09:39;;;;;;;10.90;7.07;;;;;;;-142.57;95.32;115900.28;5074513;28;20036;-84
2023/09/05 05:12:05;;;;;;;12.57;7.45;;;;;;;-142.57;95.34;115900.28;5073638;28;20060;-82
2023/09/05 05:14:31;;;;;;;17.63;7.63;;;;;;;-142.57;95.97;115900.28;5073823;28;20029;-87
2023/09/05 05:16:56;;;;;;;10.50;7.85;;;;;;;-142.57;96.77;115900.28;5073798;28;20028;-85
2023/09/05 05:19:22;;;;;;;13.73;8.05;;;;;;;-142.57;97.22;115900.28;5071571;28;20029;-84
2023/09/05 05:21:49;;;;;;;14.20;7.25;;;;;;;-142.57;96.73;115900.28;5074114;28;20423;-85
2023/09/05 05:24:15;;;;;;;9.90;7.30;;;;;;;-142.57;95.64;115900.28;5073381;28;20051;-84
2023/09/05 05:26:41;;;;;;;11.23;7.20;;;;;;;-142.57;94.64;115900.28;5074067;28;20467;-82
2023/09/05 05:29:07;;;;;;;14.32;7.95;;;;;;;-142.57;95.80;115900.28;5072250;28;20040;-84
2023/09/05 05:31:33;;;;;;;16.67;7.80;;;;;;;-142.57;96.28;115900.28;5073792;28;20032;-82
2023/09/05 05:33:59;;;;;;;12.07;7.22;;;;;;;-142.57;96.43;115900.28;5073659;28;20046;-85
2023/09/05 05:36:26;;;;;;;14.13;7.78;;;;;;;-142.57;95.87;115900.28;5072862;28;20040;-86
2023/09/05 05:38:52;;;;;;;17.70;7.40;;;;;;;-142.57;96.03;115900.28;5073839;28;20032;-85
2023/09/05 05:41:18;;;;;;;13.93;7.88;;;;;;;-142.57;95.46;115900.28;5072995;28;20028;-86
2023/09/05 05:43:44;;;;;;;27.35;7.50;;;;;;;-142.57;96.30;115900.28;5073341;28;20119;-85
2023/09/05 05:46:11;;;;;;;28.73;8.45;;;;;;;-142.57;97.21;115900.28;5073561;28;20439;-84
2023/09/05 05:48:38;;;;;;;14.57;7.68;;;;;;;-142.57;97.43;115900.28;5073963;28;20032;-82
2023/09/05 05:51:04;;;;;;;17.13;8.68;;;;;;;-142.57;96.36;115900.28;5072806;28;20032;-89
2023/09/05 05:53:30;;;;;;;24.65;8.48;;;;;;;-142.57;96.13;115900.28;5061893;28;20043;-85
2023/09/05 05:55:56;;;;;;;16.80;7.43;;;;;;;-142.57;96.82;115900.28;5073656;28;20111;-83
2023/09/05 05:58:21;;;;;;;18.75;7.85;;;;;;;-142.57;97.16;115900.28;5073735;28;20075;-85
2023/09/05 06:00:50;;;;;;;14.32;8.13;;;;;;;-142.57;97.76;115900.28;5072229;28;20035;-85
2023/09/05 06:03:21;;;;;;;21.50;8.27;;;;;;;-142.57;97.53;115900.28;5074077;28;20073;-88
2023/09/05 06:05:48;;;;;;;14.77;8.05;;;;;;;-142.57;96.92;115900.28;5053312;28;20041;-84
2023/09/05 06:08:14;;;;;;;15.23;8.15;;;;;;;-142.57;96.96;115900.28;5074822;28;20072;-81
2023/09/05 06:10:40;;;;;;;16.83;8.43;;;;;;;-142.57;95.85;115900.28;5079872;28;20041;-82
2023/09/05 06:13:06;;;;;;;14.35;7.70;;;;;;;-142.57;95.35;115900.28;5074069;28;20032;-84
2023/09/05 06:15:34;;;;;;;18.98;8.20;;;;;;;-142.57;95.42;115900.28;5071956;28;20028;-84
2023/09/05 06:18:00;;;;;;;16.20;7.88;;;;;;;-142.57;95.19;115900.28;5073652;28;20517;-86
2023/09/05 06:20:26;;;;;;;12.65;7.40;;;;;;;-142.57;93.56;115900.28;5071778;28;20040;-85
2023/09/05 06:22:52;;;;;;;14.90;7.22;;;;;;;-142.57;93.83;115900.28;5073539;28;20033;-86
2023/09/05 06:25:17;;;;;;;22.50;8.48;;;;;;;-142.57;94.85;115900.28;5073376;28;20086;-87
2023/09/05 06:27:43;;;;;;;43.35;9.55;;;;;;;-142.57;94.34;115900.28;5072593;28;20048;-87
2023/09/05 06:30:13;;;;;;;23.38;8.68;;;;;;;-142.57;95.69;115900.28;5075584;28;20059;-86
2023/09/05 06:32:39;;;;;;;25.80;7.75;;;;;;;-142.57;96.18;115900.28;5076893;28;20040;-88
2023/09/05 06:35:09;;;;;;;15.55;7.93;;;;;;;-142.57;97.41;115900.28;5058908;28;20067;-85
2023/09/05 06:37:38;;;;;;;12.80;7.72;;;;;;;-142.57;96.49;115900.28;5076121;28;20060;-84
2023/09/05 06:40:06;;;;;;;26.35;8.00;;;;;;;-142.57;96.69;115900.28;5058804;28;20085;-87
2023/09/05 06:42:32;;;;;;;14.68;7.60;;;;;;;-142.57;96.36;115900.28;5077085;28;20039;-88
2023/09/05 06:44:58;;;;;;;14.07;7.60;;;;;;;-142.57;94.42;115900.28;5067522;28;20045;-85
2023/09/05 06:47:23;;;;;;;15.20;8.68;;;;;;;-142.57;93.43;115900.28;5055485;28;20043;-86
2023/09/05 06:49:51;;;;;;;15.60;7.85;;;;;;;-142.57;93.27;115900.28;5056644;28;20124;-85
2023/09/05 06:52:17;;;;;;;24.60;8.10;;;;;;;-142.57;90.00;115900.28;5056657;28;20056;-86
2023/09/05 06:54:42;;;;;;;20.83;7.90;;;;;;;-142.57;89.67;115900.28;5055750;28;20537;-83
2023/09/05 06:57:08;;;;;;;14.90;7.03;;;;;;;-142.57;88.42;115900.28;5055652;28;20057;-86
2023/09/05 06:59:35;;;;;;;12.60;7.35;;;;;;;-142.57;88.20;115900.28;5056496;28;20064;-85
2023/09/05 07:02:02;;;;;;;13.95;6.97;;;;;;;-142.57;85.88;115900.28;5071118;28;20412;-85
2023/09/05 07:04:31;;;;;;;19.08;7.68;;;;;;;-142.57;83.67;115900.28;5075987;28;20040;-85
2023/09/05 07:07:00;;;;;;;16.27;6.28;;;;;;;-142.57;83.52;115900.28;5075676;28;20020;-84
2023/09/05 07:09:29;;;;;;;10.98;6.43;;;;;;;-142.57;80.71;115900.28;5075900;28;20044;-83
2023/09/05 07:11:54;;;;;;;16.42;6.68;;;;;;;-142.57;77.59;115900.28;5076639;28;20032;-82
2023/09/05 07:14:23;;;;;;;16.27;6.93;;;;;;;-142.57;72.17;115900.28;5075942;28;20040;-84
2023/09/05 07:16:49;;;;;;;17.48;7.10;;;;;;;-142.57;73.27;115900.28;5074047;28;20470;-82
2023/09/05 07:19:16;;;;;;;14.60;6.93;;;;;;;-142.57;72.16;115900.28;5076473;28;20078;-84
2023/09/05 07:21:42;;;;;;;12.52;6.55;;;;;;;-142.57;69.94;115900.28;5076349;28;20474;-85
2023/09/05 07:24:13;;;;;;;11.15;6.13;;;;;;;-142.57;67.40;115900.28;5058608;28;20024;-87
2023/09/05 07:26:40;;;;;;;8.60;5.35;;;;;;;-142.57;64.07;115900.28;5075980;28;20040;-89
2023/09/05 07:29:11;;;;;;;16.95;5.13;;;;;;;-142.57;62.05;115900.28;5075234;28;20044;-86
2023/09/05 07:31:41;;;;;;;14.93;5.15;;;;;;;-142.57;62.79;115900.28;5088423;28;20100;-87
2023/09/05 07:34:07;;;;;;;9.50;4.90;;;;;;;-142.57;62.24;115900.28;5071524;28;20056;-83
2023/09/05 07:36:34;;;;;;;7.43;5.22;;;;;;;-142.57;61.09;115900.28;5095924;28;20028;-85
2023/09/05 07:39:04;;;;;;;10.30;4.13;;;;;;;-142.57;56.75;115900.28;5092485;28;20092;-85
2023/09/05 07:41:31;;;;;;;6.30;3.45;;;;;;;-142.57;55.53;115900.28;5090691;28;20056;-82
2023/09/05 07:43:57;;;;;;;25.70;4.70;;;;;;;-142.57;56.52;115900.28;5088902;28;20031;-88
2023/09/05 07:46:22;;;;;;;27.83;4.90;;;;;;;-142.57;57.74;115900.28;5078877;28;20157;-85
2023/09/05 07:48:52;;;;;;;18.42;5.13;;;;;;;-142.57;58.58;115900.28;5075730;28;20037;-89
2023/09/05 07:51:22;;;;;;;23.35;4.55;;;;;;;-142.57;56.98;115900.28;5075948;28;20067;-86
2023/09/05 07:54:02;;;;;;;20.60;5.38;;;;;;;-142.57;56.71;115900.28;5077108;28;20498;-86
2023/09/05 07:56:29;;;;;;;8.57;2.88;;;;;;;-142.57;53.11;115900.28;5061236;28;20041;-83
2023/09/05 07:58:55;;;;;;;7.47;3.13;;;;;;;-142.57;54.31;115900.28;5069591;28;20437;-86
2023/09/05 08:01:20;;;;;;;10.73;3.47;;;;;;;-142.57;54.40;115900.28;5075494;28;20435;-84
2023/09/05 08:03:47;;;;;;;12.05;3.25;;;;;;;-142.57;54.63;115900.28;5074122;28;20119;-86
2023/09/05 08:06:13;;;;;;;18.42;3.95;;;;;;;-142.57;54.67;115900.28;5074831;28;20124;-87
2023/09/05 08:08:38;;;;;;;16.17;3.20;;;;;;;-142.57;55.26;115900.28;5075465;28;20028;-86
2023/09/05 08:11:04;;;;;;;7.82;3.38;;;;;;;-142.57;55.04;115900.28;5077073;28;20078;-89
2023/09/05 08:13:30;;;;;;;10.75;3.88;;;;;;;-142.57;56.23;115900.28;5093274;28;20013;-85
2023/09/05 08:15:55;;;;;;;10.10;3.85;;;;;;;-142.57;55.10;115900.28;5094858;28;20013;-85
2023/09/05 08:18:24;;;;;;;5.30;2.88;;;;;;;-142.57;56.16;115900.28;5095717;28;20045;-88
2023/09/05 08:20:50;;;;;;;9.80;3.42;;;;;;;-142.57;56.38;115900.28;5098179;28;20017;-84
2023/09/05 08:23:15;;;;;;;14.27;4.30;;;;;;;-142.57;56.21;115900.28;5098548;28;20036;-84
2023/09/05 08:25:41;;;;;;;9.00;3.20;;;;;;;-142.57;55.03;115900.28;5095674;28;20028;-83
2023/09/05 08:28:09;;;;;;;10.90;3.30;;;;;;;-142.57;54.40;115900.28;5081802;28;20032;-86
2023/09/05 08:30:34;;;;;;;9.63;3.10;;;;;;;-142.57;55.04;115900.28;5075528;28;20028;-90
2023/09/05 08:33:01;;;;;;;6.47;3.25;;;;;;;-142.57;54.89;115900.28;5075298;28;20028;-85
2023/09/05 08:35:28;;;;;;;9.68;3.80;;;;;;;-142.57;55.79;115900.28;5076696;28;20032;-90
2023/09/05 08:37:53;;;;;;;8.63;4.30;;;;;;;-142.57;56.08;115900.28;5075294;28;20540;-88
2023/09/05 08:40:20;;;;;;;6.60;4.07;;;;;;;-142.57;55.94;115900.28;5075112;28;20021;-86
2023/09/05 08:42:50;;;;;;;10.45;4.30;;;;;;;-142.57;55.53;115900.28;5077393;28;20048;-90
2023/09/05 08:45:20;;;;;;;12.80;4.40;;;;;;;-142.57;56.30;115900.28;5082547;28;20070;-84
2023/09/05 08:48:05;;;;;;;12.48;4.72;;;;;;;-142.57;56.61;115900.28;5086558;28;20032;-90
2023/09/05 08:50:36;;;;;;;11.48;5.10;;;;;;;-142.57;57.16;115900.28;5075756;28;20078;-86
2023/09/05 08:53:10;;;;;;;8.90;4.90;;;;;;;-142.57;56.22;115900.28;5072297;28;20025;-83
2023/09/05 08:55:38;;;;;;;13.50;4.75;;;;;;;-142.57;55.55;115900.28;5073736;28;20040;-82
2023/09/05 08:58:06;;;;;;;8.50;4.57;;;;;;;-142.57;51.74;115900.28;5072224;28;20028;-86
2023/09/05 09:00:32;;;;;;;18.33;3.80;;;;;;;-142.57;48.83;115900.28;5074331;28;20029;-85
2023/09/05 09:02:59;;;;;;;6.78;3.28;;;;;;;-142.57;47.00;115900.28;5074462;28;20046;-84
2023/09/05 09:05:24;;;;;;;9.10;3.58;;;;;;;-142.57;47.18;115900.28;5073581;28;20037;-84
2023/09/05 09:07:54;;;;;;;11.10;3.25;;;;;;;-142.57;47.41;115900.28;5075134;28;20027;-85
2023/09/05 09:10:21;;;;;;;8.95;2.83;;;;;;;-142.57;45.38;115900.28;5074516;28;20036;-85
2023/09/05 09:12:51;;;;;;;7.50;2.95;;;;;;;-142.57;43.88;115900.28;5074131;28;20055;-80
2023/09/05 09:15:17;;;;;;;7.32;3.15;;;;;;;-142.57;44.52;115900.28;5073958;28;20482;-80
2023/09/05 09:17:47;;;;;;;4.53;2.67;;;;;;;-142.57;43.90;115900.28;5072863;28;20098;-83
2023/09/05 09:20:13;;;;;;;5.55;2.75;;;;;;;-142.57;43.25;115900.28;5078311;28;20044;-77
2023/09/05 09:22:39;;;;;;;10.73;2.92;;;;;;;-142.57;43.44;115900.28;5077114;28;20024;-81
2023/09/05 09:25:20;;;;;;;4.45;2.78;;;;;;;-142.57;45.14;115900.28;5076886;28;20035;-81
2023/09/05 09:27:53;;;;;;;6.28;2.90;;;;;;;-142.57;45.57;115900.28;5075870;28;20453;-82
2023/09/05 09:30:24;;;;;;;7.00;2.53;;;;;;;-142.57;44.42;115900.28;5078165;28;20104;-82
2023/09/05 09:32:51;;;;;;;16.40;3.88;;;;;;;-142.57;44.11;115900.28;5077104;28;20036;-82
2023/09/05 09:35:16;;;;;;;9.32;3.08;;;;;;;-142.57;43.64;115900.28;5084875;28;20078;-79
2023/09/05 09:37:45;;;;;;;14.23;3.13;;;;;;;-142.57;43.59;115900.28;5082297;28;20032;-80
2023/09/05 09:40:11;;;;;;;7.47;2.72;;;;;;;-142.57;43.12;115900.28;5078017;28;20037;-82
2023/09/05 09:42:37;;;;;;;10.52;2.83;;;;;;;-142.57;42.76;115900.28;5077586;28;20029;-82
2023/09/05 09:45:07;;;;;;;7.68;3.15;;;;;;;-142.57;41.12;115900.28;5077963;28;20032;-81
2023/09/05 09:47:34;;;;;;;12.27;2.83;;;;;;;-142.57;40.17;115900.28;5078699;28;20483;-82
2023/09/05 09:50:02;;;;;;;9.07;3.10;;;;;;;-142.57;40.30;115900.28;5079243;28;20040;-80
2023/09/05 09:52:34;;;;;;;6.95;2.70;;;;;;;-142.57;39.85;115900.28;5077461;28;20388;-86
2023/09/05 09:55:07;;;;;;;12.90;2.38;;;;;;;-142.57;38.95;115900.28;5066128;28;20072;-86
2023/09/05 09:57:38;;;;;;;8.45;2.50;;;;;;;-142.57;37.47;115900.28;5064524;28;20028;-85
2023/09/05 10:00:09;;;;;;;6.30;2.63;;;;;;;-142.57;37.65;115900.28;5065590;28;20123;-87
2023/09/05 10:02:43;;;;;;;4.57;2.42;;;;;;;-142.57;37.67;115900.28;5056939;28;20095;-87
2023/09/05 10:05:11;;;;;;;10.13;2.70;;;;;;;-142.57;38.13;115900.28;5068538;28;20058;-89
2023/09/05 10:07:37;;;;;;;11.15;2.70;;;;;;;-142.57;37.79;115900.28;5069351;28;20429;-85
2023/09/05 10:10:04;;;;;;;6.65;2.53;;;;;;;-142.57;37.04;115900.28;5064610;28;20033;-85
2023/09/05 10:12:31;;;;;;;5.93;2.85;;;;;;;-142.57;36.59;115900.28;5079085;28;20040;-82
2023/09/05 10:14:58;;;;;;;4.03;2.20;;;;;;;-142.57;35.58;115900.28;5079941;28;20029;-81
2023/09/05 10:17:26;;;;;;;13.65;2.55;;;;;;;-142.57;35.13;115900.28;5082308;28;20044;-87
2023/09/05 10:19:54;;;;;;;7.82;2.83;;;;;;;-142.57;35.19;115900.28;5081969;28;20025;-82
2023/09/05 10:22:22;;;;;;;5.75;2.22;;;;;;;-142.57;35.12;115900.28;5077273;28;20028;-82
2023/09/05 10:24:48;;;;;;;6.10;2.53;;;;;;;-142.57;35.56;115900.28;5077150;28;20090;-80
2023/09/05 10:27:14;;;;;;;7.07;2.45;;;;;;;-142.57;34.75;115900.28;5076346;28;20432;-84
2023/09/05 10:29:44;;;;;;;8.40;2.28;;;;;;;-142.57;34.88;115900.28;5074881;28;20040;-86
2023/09/05 10:32:24;;;;;;;5.28;2.35;;;;;;;-142.57;34.61;115900.28;5075294;28;20096;-81
2023/09/05 10:34:58;;;;;;;5.15;2.30;;;;;;;-142.57;36.08;115900.28;5077080;28;20036;-82
2023/09/05 10:37:27;;;;;;;9.38;3.00;;;;;;;-142.57;36.22;115900.28;5076708;28;20081;-82
2023/09/05 10:39:55;;;;;;;10.23;3.05;;;;;;;-142.57;36.29;115900.28;5076971;28;20132;-87
2023/09/05 10:42:29;;;;;;;7.53;2.65;;;;;;;-142.57;35.53;115900.28;5076121;28;20408;-83
2023/09/05 10:44:59;;;;;;;6.07;2.50;;;;;;;-142.57;35.84;115900.28;5076645;28;20032;-82
2023/09/05 10:47:28;;;;;;;4.95;2.58;;;;;;;-142.57;35.58;115900.28;5076128;28;20054;-83
2023/09/05 10:49:58;;;;;;;5.15;3.20;;;;;;;-142.57;35.72;115900.28;5076361;28;20044;-78
2023/09/05 10:52:27;;;;;;;7.55;2.63;;;;;;;-142.57;35.99;115900.28;5075993;28;20479;-82
2023/09/05 10:54:53;;;;;;;5.28;2.90;;;;;;;-142.57;36.00;115900.28;5066045;28;20483;-83
2023/09/05 10:57:42;;;;;;;11.07;2.38;;;;;;;-142.57;35.05;115900.28;5073008;28;20149;-82
2023/09/05 11:00:17;;;;;;;5.82;2.30;;;;;;;-142.57;34.68;115900.28;5076351;28;20068;-81
2023/09/05 11:02:44;;;;;;;8.85;2.60;;;;;;;-142.57;33.32;115900.28;5076391;28;20490;-83
2023/09/05 11:05:17;;;;;;;5.57;2.58;;;;;;;-142.57;33.46;115900.28;5076122;28;20522;-82
2023/09/05 11:07:48;;;;;;;10.45;2.80;;;;;;;-142.57;33.30;115900.28;5074059;28;20122;-82
2023/09/05 11:10:30;;;;;;;6.63;2.50;;;;;;;-142.57;33.65;115900.28;5065664;28;20475;-85